Raleigh Durham International Airport
KRDU : now visible

Airfield :











YOU CAN JOIN US ON...

 
LOGIN :

Register | Disclaimer

   EN    FR    IT 

 









Legend :    VFR   Marginal VFR   IFR   Intensive IFR   Very Intensive IFR
Visi :
Ceiling :
>= 8 km
>= 3000ft
5 to 8 km
1000 to 3000 ft
1500m to 5 km
500 to 1000 ft
800 to 1500m
200 to 500 ft
< 800m
< 200 ft
Symbols :   Thunderstorms  Fog  Heavy snow  Heavy precipitations  Wind > 20 kt






- Airport Elevation : 435 ft
- IATA code : RDU


KRDU - Raleigh Durham International

CURRENT METAR :
  • 140951Z 15004KT 10SM FEW100 13/12 A3009 RMK AO2 SLP187 T01330117

EXPIRED METARs :
  • 140851Z 19004KT 10SM FEW100 14/12 A3009 RMK AO2 SLP186 T01390117 53001
  • 140751Z 17006KT 10SM FEW100 14/11 A3008 RMK AO2 SLP183 T01440111

TAF KRDU
Valid from the 14 at 06:00 until the 15 at 06:00 UTC


140537Z 1406/1506 19004KT P6SM FEW100 FEW250
FM141800 22010G17KT P6SM SCT050 SCT100 SCT250
FM142300 22008KT P6SM VCTS OVC080CB
FM150200 22008G15KT 5SM -SHRA OVC050
FM150400 24006KT 3SM -SHRA OVC010
KZDC FIR / North America



MET'MAP, your aeronautical weather chart ! - Copyright ORBIFLY December 2007 - Disclaimer

ORBIFLY MET'MAP TEAM :

Programming & Development : Alexandra Zaïnal
Concept & original design : Baudouin d'Aumeries
Assistance for programming : Marc-Olivier Méhu
Technical & hardware support : Manuel Goepfert

Contact : metmap@orbifly.com




SOURCES & CREDITS :

   NOAA       Earth
Advisory